Time;durP1;ratioP1;P1;durP2;ratioP2;P2;SDS_P1;SDS_P2;PMS_P1;PMS_P2;Temp;Humidity;BMP_temperature;BMP_pressure;BME280_temperature;BME280_humidity;BME280_pressure;Samples;Min_cycle;Max_cycle;Signal;HPM_P1;HPM_P2
2023/01/26 00:01:08;;;;;;;26.87;16.60;;;0.90;1.00;;;;;;6235995;28;20314;-55
2023/01/26 00:04:12;;;;;;;22.20;16.17;;;1.00;1.00;;;;;;6254355;28;20244;-54
2023/01/26 00:07:15;;;;;;;27.13;16.70;;;1.00;1.00;;;;;;6250613;28;20222;-55
2023/01/26 00:10:19;;;;;;;22.20;15.57;;;0.90;1.00;;;;;;6250352;28;20241;-56
2023/01/26 00:13:22;;;;;;;25.40;15.97;;;1.10;1.00;;;;;;6259322;28;20230;-54
2023/01/26 00:16:26;;;;;;;23.27;15.10;;;1.00;1.00;;;;;;6258655;28;20238;-55
2023/01/26 00:19:29;;;;;;;29.87;17.13;;;0.80;1.00;;;;;;6256150;28;20233;-55
2023/01/26 00:22:32;;;;;;;26.57;16.93;;;0.80;1.00;;;;;;6244656;28;20767;-54
2023/01/26 00:25:40;;;;;;;28.60;17.10;;;0.70;1.00;;;;;;6234745;28;20333;-55
2023/01/26 00:28:43;;;;;;;28.33;17.67;;;0.80;1.00;;;;;;6234784;28;20273;-54
2023/01/26 00:31:46;;;;;;;29.70;17.30;;;0.60;1.00;;;;;;6234984;28;20230;-54
2023/01/26 00:34:49;;;;;;;27.17;17.60;;;0.70;1.00;;;;;;6258381;28;20233;-55
2023/01/26 00:37:53;;;;;;;28.90;17.30;;;0.80;1.00;;;;;;6258924;28;21057;-55
2023/01/26 00:40:59;;;;;;;29.57;17.07;;;0.70;1.00;;;;;;6244833;28;20607;-55
2023/01/26 00:44:02;;;;;;;26.07;16.60;;;0.80;1.00;;;;;;6259310;28;20238;-55
2023/01/26 00:47:06;;;;;;;30.90;17.47;;;0.60;1.00;;;;;;6247836;28;20249;-55
2023/01/26 00:50:10;;;;;;;29.60;17.07;;;0.70;1.00;;;;;;6233815;28;20242;-55
2023/01/26 00:53:14;;;;;;;25.47;17.23;;;0.70;1.00;;;;;;6234835;28;20449;-53
2023/01/26 00:56:18;;;;;;;28.03;17.00;;;0.70;1.00;;;;;;6234319;28;20258;-60
2023/01/26 00:59:22;;;;;;;24.23;16.97;;;0.70;1.00;;;;;;6233214;28;20249;-54
2023/01/26 01:02:25;;;;;;;27.30;16.80;;;0.70;1.00;;;;;;6260822;28;20245;-54
2023/01/26 01:05:31;;;;;;;23.50;15.90;;;0.80;1.00;;;;;;6248364;28;20238;-56
2023/01/26 01:08:34;;;;;;;25.03;16.53;;;0.60;1.00;;;;;;6248838;28;20621;-56
2023/01/26 01:11:38;;;;;;;24.00;16.40;;;0.60;1.00;;;;;;6255565;28;20249;-54
2023/01/26 01:14:42;;;;;;;24.53;16.33;;;0.70;1.00;;;;;;6239656;28;20242;-56
2023/01/26 01:17:45;;;;;;;21.63;16.50;;;0.70;1.00;;;;;;6233396;28;20751;-54
2023/01/26 01:20:48;;;;;;;24.57;17.10;;;0.70;1.00;;;;;;6233323;28;20261;-55
2023/01/26 01:23:51;;;;;;;31.40;17.43;;;0.70;1.00;;;;;;6232659;28;20231;-56
2023/01/26 01:26:55;;;;;;;27.23;17.37;;;0.70;1.00;;;;;;6233162;28;20258;-55
2023/01/26 01:29:58;;;;;;;28.20;18.10;;;0.70;1.00;;;;;;6232892;28;20243;-53
2023/01/26 01:33:01;;;;;;;27.03;16.70;;;0.70;1.00;;;;;;6243113;28;20236;-54
2023/01/26 01:36:06;;;;;;;24.90;17.20;;;0.90;1.00;;;;;;6254646;28;20230;-54
2023/01/26 01:39:09;;;;;;;30.57;17.73;;;0.80;1.00;;;;;;6256846;28;20249;-55
2023/01/26 01:42:13;;;;;;;26.00;18.10;;;0.70;1.00;;;;;;6257484;28;20316;-53
2023/01/26 01:45:39;;;;;;;29.13;17.20;;;0.80;1.00;;;;;;6238603;28;20357;-54
2023/01/26 01:48:49;;;;;;;27.00;17.43;;;0.60;1.00;;;;;;6232425;28;20239;-55
2023/01/26 01:51:56;;;;;;;25.50;17.53;;;0.60;1.00;;;;;;6233473;28;20656;-56
2023/01/26 01:55:06;;;;;;;29.00;18.43;;;0.80;1.00;;;;;;6223490;28;20227;-55
2023/01/26 01:58:10;;;;;;;26.23;16.30;;;0.70;1.00;;;;;;6236891;28;20235;-54
2023/01/26 02:01:13;;;;;;;29.40;18.47;;;0.60;1.00;;;;;;6242407;28;20245;-57
2023/01/26 02:04:17;;;;;;;31.93;18.30;;;0.50;1.00;;;;;;6263238;28;20245;-54
2023/01/26 02:07:20;;;;;;;25.60;17.13;;;0.60;1.00;;;;;;6261905;28;20233;-54
2023/01/26 02:10:24;;;;;;;28.73;17.37;;;0.90;1.00;;;;;;6261274;28;20778;-54
2023/01/26 02:13:31;;;;;;;27.77;18.83;;;0.60;1.00;;;;;;6262161;28;20226;-55
2023/01/26 02:16:35;;;;;;;27.33;17.07;;;0.60;1.00;;;;;;6255284;28;20239;-54
2023/01/26 02:19:47;;;;;;;29.70;17.73;;;0.80;1.00;;;;;;6237712;28;20250;-54
2023/01/26 02:22:57;;;;;;;25.30;16.43;;;0.80;1.00;;;;;;6238429;28;20239;-53
2023/01/26 02:26:07;;;;;;;25.63;17.73;;;0.90;1.00;;;;;;6238557;28;20238;-53
2023/01/26 02:29:12;;;;;;;27.37;17.10;;;0.80;1.00;;;;;;6235850;28;20715;-56
2023/01/26 02:32:15;;;;;;;29.30;18.40;;;0.80;1.00;;;;;;6241236;28;20264;-53
2023/01/26 02:35:18;;;;;;;31.47;18.93;;;0.80;1.00;;;;;;6260629;28;20706;-55
2023/01/26 02:38:23;;;;;;;27.23;17.67;;;0.70;1.00;;;;;;6261123;28;20367;-56
2023/01/26 02:44:48;;;;;;;27.17;18.10;;;0.90;1.00;;;;;;6250320;28;20239;-56
2023/01/26 02:47:51;;;;;;;27.30;16.83;;;0.70;1.00;;;;;;6236191;28;20265;-54
2023/01/26 02:50:53;;;;;;;28.27;17.93;;;0.70;1.00;;;;;;6236679;28;20242;-53
2023/01/26 02:53:56;;;;;;;33.60;20.17;;;0.80;1.00;;;;;;6236809;28;20747;-55
2023/01/26 02:57:00;;;;;;;34.53;20.13;;;0.70;1.00;;;;;;6237227;28;20394;-55
2023/01/26 03:00:03;;;;;;;32.47;19.40;;;0.70;1.00;;;;;;6236247;28;20239;-55
2023/01/26 03:03:14;;;;;;;35.67;19.60;;;1.00;1.00;;;;;;6246443;28;20484;-54
2023/01/26 03:06:17;;;;;;;31.90;19.80;;;0.70;1.00;;;;;;6260655;28;20234;-57
2023/01/26 03:09:20;;;;;;;29.97;19.47;;;0.70;1.00;;;;;;6254469;28;20226;-54
2023/01/26 03:12:25;;;;;;;32.70;19.77;;;0.70;1.00;;;;;;6259346;28;20230;-54
2023/01/26 03:15:46;;;;;;;35.23;19.30;;;0.70;1.00;;;;;;6256189;28;20230;-56
2023/01/26 03:29:07;;;;;;;34.57;19.53;;;0.80;1.00;;;;;;6240047;28;20235;-54
2023/01/26 03:32:11;;;;;;;33.37;20.10;;;0.90;1.00;;;;;;6238229;28;20242;-54
2023/01/26 03:35:15;;;;;;;33.63;20.60;;;0.70;1.00;;;;;;6259210;28;20238;-54
2023/01/26 03:38:18;;;;;;;32.67;18.90;;;0.80;1.00;;;;;;6259860;28;20723;-56
2023/01/26 03:58:08;;;;;;;33.00;19.40;;;0.70;1.00;;;;;;6234823;28;20234;-54
2023/01/26 04:01:18;;;;;;;30.63;19.30;;;0.70;1.00;;;;;;6234848;28;20254;-55
2023/01/26 04:11:03;;;;;;;28.13;17.37;;;1.00;1.00;;;;;;6250542;28;20234;-55
2023/01/26 04:24:13;;;;;;;27.40;17.83;;;0.70;1.00;;;;;;6233690;28;20234;-54
2023/01/26 04:27:18;;;;;;;25.23;16.30;;;0.80;1.00;;;;;;6234942;28;20805;-56
2023/01/26 04:30:22;;;;;;;26.93;18.00;;;0.70;1.00;;;;;;6233875;28;20265;-54
2023/01/26 04:33:26;;;;;;;23.43;15.60;;;0.70;1.00;;;;;;6235684;28;20854;-54
2023/01/26 04:36:29;;;;;;;26.77;16.37;;;0.80;1.00;;;;;;6256639;28;20237;-56
2023/01/26 04:39:32;;;;;;;28.53;17.73;;;0.80;1.00;;;;;;6254871;28;20240;-54
2023/01/26 04:42:35;;;;;;;21.80;16.77;;;0.70;1.00;;;;;;6252329;28;20541;-55
2023/01/26 04:45:38;;;;;;;25.43;16.43;;;0.70;1.00;;;;;;6258455;28;20234;-54
2023/01/26 04:48:43;;;;;;;27.13;17.63;;;0.60;1.00;;;;;;6256013;28;20246;-54
2023/01/26 04:51:46;;;;;;;23.63;16.47;;;0.70;1.00;;;;;;6254905;28;20245;-54
2023/01/26 04:54:49;;;;;;;26.73;17.90;;;0.80;1.00;;;;;;6256979;28;20657;-57
2023/01/26 04:57:52;;;;;;;25.90;15.77;;;0.60;1.00;;;;;;6256585;28;20260;-55
2023/01/26 05:00:56;;;;;;;24.23;16.73;;;0.60;1.00;;;;;;6258512;28;20245;-54
2023/01/26 05:04:02;;;;;;;25.63;16.33;;;0.80;1.00;;;;;;6250948;28;20324;-54
2023/01/26 05:07:05;;;;;;;24.67;15.53;;;0.60;1.00;;;;;;6261461;28;20250;-54
2023/01/26 05:10:09;;;;;;;24.00;15.37;;;0.60;1.00;;;;;;6266336;28;20240;-53
2023/01/26 05:13:15;;;;;;;23.93;16.00;;;0.70;1.00;;;;;;6256915;28;20312;-54
2023/01/26 05:16:18;;;;;;;25.00;15.00;;;0.50;1.00;;;;;;6259920;28;20233;-55
2023/01/26 05:19:23;;;;;;;23.00;15.17;;;0.50;1.00;;;;;;6261002;28;20604;-55
2023/01/26 05:22:26;;;;;;;20.93;15.07;;;0.50;1.00;;;;;;6264165;28;20237;-57
2023/01/26 05:25:29;;;;;;;23.03;15.87;;;0.70;1.00;;;;;;6259268;28;20298;-53
2023/01/26 05:28:33;;;;;;;22.97;15.23;;;0.80;1.00;;;;;;6259680;28;20225;-59
2023/01/26 05:31:36;;;;;;;21.03;14.77;;;0.70;1.00;;;;;;6258441;28;20230;-54
2023/01/26 05:34:40;;;;;;;21.80;14.97;;;0.60;1.00;;;;;;6254596;28;20248;-55
2023/01/26 05:37:45;;;;;;;25.87;16.90;;;0.70;1.00;;;;;;6262253;28;20278;-55
2023/01/26 05:40:48;;;;;;;22.87;15.53;;;1.00;1.00;;;;;;6261133;28;20245;-55
2023/01/26 05:43:51;;;;;;;23.87;15.77;;;0.90;1.00;;;;;;6256083;28;20244;-54
2023/01/26 05:46:54;;;;;;;25.17;16.87;;;0.80;1.00;;;;;;6262605;28;20238;-54
2023/01/26 05:49:58;;;;;;;20.53;14.60;;;0.80;1.00;;;;;;6253274;28;20238;-54
2023/01/26 05:53:01;;;;;;;26.77;17.73;;;1.00;1.00;;;;;;6263853;28;20305;-54
2023/01/26 05:56:05;;;;;;;27.87;18.27;;;1.00;1.00;;;;;;6268318;28;20733;-54
2023/01/26 05:59:08;;;;;;;28.93;18.30;;;0.80;1.00;;;;;;6260177;28;20711;-54
2023/01/26 06:02:12;;;;;;;28.67;17.57;;;0.70;1.00;;;;;;6261974;28;20241;-54
2023/01/26 06:05:17;;;;;;;26.07;16.83;;;0.90;1.00;;;;;;6268986;28;20748;-57
2023/01/26 06:08:20;;;;;;;24.80;17.30;;;0.60;1.00;;;;;;6266797;28;20241;-55
2023/01/26 06:11:23;;;;;;;27.00;17.40;;;0.70;1.00;;;;;;6264845;28;20237;-54
2023/01/26 06:14:26;;;;;;;30.67;18.10;;;0.80;1.00;;;;;;6256100;28;20230;-54
2023/01/26 06:17:29;;;;;;;28.47;18.57;;;0.80;1.00;;;;;;6272702;28;20238;-54
2023/01/26 06:20:33;;;;;;;25.27;15.87;;;0.70;1.00;;;;;;6270014;28;20361;-54
2023/01/26 06:23:36;;;;;;;24.10;15.73;;;0.80;1.00;;;;;;6255814;28;20309;-54
2023/01/26 06:26:39;;;;;;;22.17;15.67;;;0.80;1.00;;;;;;6260741;28;20332;-53
2023/01/26 06:29:43;;;;;;;23.90;16.30;;;0.80;1.00;;;;;;6259016;28;20246;-54
2023/01/26 06:32:47;;;;;;;22.80;14.73;;;0.80;1.00;;;;;;6258800;28;20311;-54
2023/01/26 06:35:53;;;;;;;23.80;16.20;;;0.80;1.00;;;;;;6258437;28;20705;-55
2023/01/26 06:38:56;;;;;;;19.13;14.47;;;0.70;1.00;;;;;;6254029;28;20249;-54
2023/01/26 06:42:02;;;;;;;21.47;14.23;;;0.70;1.00;;;;;;6258234;28;20227;-54
2023/01/26 06:45:06;;;;;;;21.20;13.37;;;0.80;1.00;;;;;;6259932;28;20240;-54
2023/01/26 06:48:09;;;;;;;21.33;13.97;;;0.70;1.00;;;;;;6241752;28;20762;-54
2023/01/26 06:51:42;;;;;;;18.53;14.43;;;0.70;1.00;;;;;;6259407;28;20604;-54
2023/01/26 06:54:48;;;;;;;20.50;14.63;;;0.50;1.00;;;;;;6258551;28;20252;-55
2023/01/26 06:57:51;;;;;;;18.50;13.33;;;0.70;1.00;;;;;;6264009;28;20608;-54
2023/01/26 07:00:55;;;;;;;27.23;14.77;;;0.70;1.00;;;;;;6260978;28;20245;-54
2023/01/26 07:03:58;;;;;;;23.13;13.57;;;0.60;1.00;;;;;;6261142;28;20237;-55
2023/01/26 07:07:03;;;;;;;24.03;14.30;;;0.60;1.00;;;;;;6258861;28;20229;-55
2023/01/26 07:10:07;;;;;;;22.27;13.53;;;0.60;1.00;;;;;;6258012;28;20323;-54
2023/01/26 07:13:10;;;;;;;24.50;14.77;;;0.70;1.00;;;;;;6252272;28;20242;-55
2023/01/26 07:16:15;;;;;;;24.87;15.97;;;0.50;1.00;;;;;;6265151;28;20248;-55
2023/01/26 07:19:18;;;;;;;20.27;13.77;;;0.40;1.00;;;;;;6263891;28;20307;-54
2023/01/26 07:22:23;;;;;;;25.50;14.80;;;0.40;1.00;;;;;;6264668;28;20234;-53
2023/01/26 07:25:26;;;;;;;19.13;13.30;;;0.50;1.00;;;;;;6259674;28;20226;-54
2023/01/26 07:28:29;;;;;;;22.83;14.37;;;0.70;1.00;;;;;;6258104;28;20230;-54
2023/01/26 07:31:32;;;;;;;17.70;13.47;;;0.50;1.00;;;;;;6255147;28;20233;-54
2023/01/26 07:34:35;;;;;;;19.87;13.43;;;0.60;1.00;;;;;;6258442;28;20725;-54
2023/01/26 07:37:39;;;;;;;24.33;13.90;;;0.50;1.00;;;;;;6261086;28;20241;-55
2023/01/26 07:40:43;;;;;;;24.87;14.80;;;0.40;1.00;;;;;;6255468;28;20495;-54
2023/01/26 07:43:46;;;;;;;19.13;13.70;;;0.70;1.00;;;;;;6257390;28;20706;-53
2023/01/26 07:46:49;;;;;;;21.07;13.93;;;0.50;1.00;;;;;;6262136;28;20275;-54
2023/01/26 07:49:52;;;;;;;20.77;13.60;;;0.80;1.00;;;;;;6253418;28;20238;-55
2023/01/26 07:52:56;;;;;;;19.80;13.40;;;0.50;1.00;;;;;;6258411;28;20234;-55
2023/01/26 07:56:10;;;;;;;20.43;14.40;;;0.60;1.00;;;;;;6251750;28;20245;-56
2023/01/26 07:59:13;;;;;;;21.17;14.33;;;0.60;1.00;;;;;;6263060;28;20256;-55
2023/01/26 08:02:16;;;;;;;17.57;14.20;;;0.50;1.00;;;;;;6263078;28;20244;-55
2023/01/26 08:05:19;;;;;;;20.37;14.60;;;0.50;1.00;;;;;;6260745;28;20265;-56
2023/01/26 08:08:24;;;;;;;23.23;13.73;;;0.60;1.00;;;;;;6254151;28;20384;-54
2023/01/26 08:11:27;;;;;;;18.50;13.87;;;0.50;1.00;;;;;;6259633;28;20593;-54
2023/01/26 08:14:30;;;;;;;17.33;14.03;;;0.50;1.00;;;;;;6261166;28;20237;-54
2023/01/26 08:17:48;;;;;;;19.50;13.77;;;0.40;1.00;;;;;;6258964;28;20246;-55
2023/01/26 08:20:52;;;;;;;17.33;12.77;;;0.50;1.00;;;;;;6259060;28;20233;-56
2023/01/26 08:24:00;;;;;;;17.00;13.27;;;0.30;1.00;;;;;;6255124;28;20330;-55
2023/01/26 08:27:04;;;;;;;18.87;13.10;;;0.50;1.00;;;;;;6238458;28;20238;-54
2023/01/26 08:30:09;;;;;;;16.73;13.37;;;0.50;1.00;;;;;;6257461;28;20256;-55
2023/01/26 08:33:12;;;;;;;15.67;12.67;;;0.50;1.00;;;;;;6254675;28;20241;-54
2023/01/26 08:36:16;;;;;;;17.30;13.37;;;0.50;1.00;;;;;;6255250;28;20375;-56
2023/01/26 08:39:20;;;;;;;15.10;12.00;;;0.40;1.00;;;;;;6255732;28;20722;-55
2023/01/26 08:42:24;;;;;;;19.73;13.57;;;0.40;1.00;;;;;;6256936;28;20229;-55
2023/01/26 08:45:28;;;;;;;14.57;11.77;;;0.20;1.00;;;;;;6256974;28;20237;-55
2023/01/26 08:48:33;;;;;;;18.83;12.80;;;0.30;1.00;;;;;;6254781;28;20234;-55
2023/01/26 08:51:37;;;;;;;16.67;13.03;;;0.20;1.00;;;;;;6259815;28;20230;-54
2023/01/26 08:54:41;;;;;;;17.73;13.60;;;0.40;1.00;;;;;;6256857;28;20249;-54
2023/01/26 08:57:45;;;;;;;16.67;12.97;;;0.10;1.00;;;;;;6260330;28;20237;-56
2023/01/26 09:00:49;;;;;;;17.83;13.33;;;0.30;1.00;;;;;;6254127;28;20636;-55
2023/01/26 09:03:54;;;;;;;15.80;12.27;;;0.20;1.00;;;;;;6261131;28;20542;-54
2023/01/26 09:06:57;;;;;;;17.57;13.67;;;0.40;1.00;;;;;;6255410;28;20238;-56
2023/01/26 09:10:02;;;;;;;16.20;12.43;;;0.50;1.00;;;;;;6259417;28;20234;-54
2023/01/26 09:13:05;;;;;;;16.50;12.20;;;0.40;1.00;;;;;;6258657;28;20622;-54
2023/01/26 09:16:15;;;;;;;16.03;13.03;;;0.50;1.00;;;;;;6268837;28;20852;-55
2023/01/26 09:19:18;;;;;;;23.13;14.60;;;0.30;1.00;;;;;;6261115;28;20230;-54
2023/01/26 09:22:21;;;;;;;17.00;13.70;;;0.30;1.00;;;;;;6259703;28;20226;-54
2023/01/26 09:25:25;;;;;;;15.77;13.70;;;0.40;1.00;;;;;;6250512;28;20244;-55
2023/01/26 09:28:28;;;;;;;15.67;13.97;;;0.20;1.00;;;;;;6259313;28;20238;-54
2023/01/26 09:31:31;;;;;;;14.83;12.87;;;0.20;1.00;;;;;;6262045;28;20480;-56
2023/01/26 09:34:35;;;;;;;17.63;14.10;;;0.30;1.00;;;;;;6259053;28;20360;-54
2023/01/26 09:37:38;;;;;;;18.50;14.53;;;0.20;1.00;;;;;;6260156;28;20730;-54
2023/01/26 09:40:53;;;;;;;18.77;14.23;;;0.20;1.00;;;;;;6266352;28;20317;-56
2023/01/26 09:44:00;;;;;;;18.40;14.57;;;0.30;1.00;;;;;;6263094;28;20234;-54
2023/01/26 09:47:08;;;;;;;14.87;13.37;;;0.10;1.00;;;;;;6267531;28;20233;-60
2023/01/26 09:50:15;;;;;;;14.77;12.77;;;0.20;1.00;;;;;;6260408;28;20234;-55
2023/01/26 09:53:23;;;;;;;15.30;13.63;;;0.00;1.00;;;;;;6261901;28;20240;-55
2023/01/26 09:56:31;;;;;;;14.93;13.43;;;-0.20;1.00;;;;;;6258506;28;20307;-53
2023/01/26 09:59:41;;;;;;;17.83;13.53;;;-0.10;1.00;;;;;;6260878;28;20241;-54
2023/01/26 10:02:56;;;;;;;14.40;13.00;;;0.10;1.00;;;;;;6264336;28;20237;-56
2023/01/26 10:06:05;;;;;;;15.43;13.27;;;0.10;1.00;;;;;;6254454;28;20367;-55
2023/01/26 10:09:26;;;;;;;17.83;14.57;;;0.20;1.00;;;;;;6260066;28;20631;-54
2023/01/26 10:12:34;;;;;;;16.23;14.23;;;0.10;1.00;;;;;;6256636;28;20222;-55
2023/01/26 10:15:39;;;;;;;15.90;13.63;;;0.20;1.00;;;;;;6266328;28;20225;-55
2023/01/26 10:18:52;;;;;;;20.03;14.77;;;0.20;1.00;;;;;;6261809;28;20344;-54
2023/01/26 10:21:59;;;;;;;14.97;13.13;;;0.40;1.00;;;;;;6261520;28;20569;-55
2023/01/26 10:25:02;;;;;;;15.20;13.60;;;0.30;1.00;;;;;;6266422;28;20237;-56
2023/01/26 10:28:14;;;;;;;20.50;14.20;;;0.30;1.00;;;;;;6258879;28;20697;-55
2023/01/26 10:31:18;;;;;;;16.13;13.50;;;0.40;1.00;;;;;;6270319;28;20698;-53
2023/01/26 10:34:24;;;;;;;17.63;13.27;;;0.30;1.00;;;;;;6264118;28;20556;-54
2023/01/26 10:37:29;;;;;;;20.57;13.77;;;0.40;1.00;;;;;;6261244;28;20315;-54
2023/01/26 10:40:43;;;;;;;17.50;14.07;;;0.60;1.00;;;;;;6259071;28;20252;-55
2023/01/26 10:43:51;;;;;;;18.27;13.73;;;0.40;1.00;;;;;;6260564;28;20250;-54
2023/01/26 10:47:14;;;;;;;16.90;13.30;;;0.60;1.00;;;;;;6260970;28;20230;-55
2023/01/26 10:50:22;;;;;;;16.60;13.00;;;0.50;1.00;;;;;;6258464;28;20245;-55
2023/01/26 10:53:28;;;;;;;12.43;11.20;;;0.50;1.00;;;;;;6251037;28;20226;-54
2023/01/26 10:56:31;;;;;;;14.67;11.87;;;0.40;1.00;;;;;;6266837;28;20226;-53
2023/01/26 10:59:44;;;;;;;13.67;11.50;;;0.60;1.00;;;;;;6259882;28;20237;-53
2023/01/26 11:02:51;;;;;;;15.20;11.53;;;0.30;1.00;;;;;;6262725;28;20583;-54
2023/01/26 11:06:06;;;;;;;15.17;11.67;;;0.60;1.00;;;;;;6259400;28;20357;-54
2023/01/26 11:09:16;;;;;;;13.53;12.10;;;0.70;1.00;;;;;;6260644;28;20332;-56
2023/01/26 11:12:21;;;;;;;16.60;11.90;;;0.50;1.00;;;;;;6263503;28;20739;-53
2023/01/26 11:15:38;;;;;;;14.23;12.07;;;0.60;1.00;;;;;;6253929;28;20733;-53
2023/01/26 11:18:51;;;;;;;17.43;12.77;;;0.20;1.00;;;;;;6259885;28;20238;-54
2023/01/26 11:21:59;;;;;;;17.03;13.77;;;0.40;1.00;;;;;;6263203;28;20245;-55
2023/01/26 11:25:15;;;;;;;22.43;14.93;;;0.50;1.00;;;;;;6259624;28;20230;-54
2023/01/26 11:28:32;;;;;;;15.90;13.80;;;0.40;1.00;;;;;;6259825;28;20248;-54
2023/01/26 11:31:45;;;;;;;16.73;13.47;;;0.60;1.00;;;;;;6259108;28;20722;-56
2023/01/26 11:35:01;;;;;;;16.13;14.43;;;0.60;1.00;;;;;;6257465;28;20717;-54
2023/01/26 11:38:22;;;;;;;19.33;13.73;;;0.50;1.00;;;;;;6259121;28;20261;-56
2023/01/26 11:41:36;;;;;;;17.10;13.93;;;0.60;1.00;;;;;;6254411;28;20624;-55
2023/01/26 11:44:57;;;;;;;17.73;14.10;;;0.50;1.00;;;;;;6258861;28;20698;-53
2023/01/26 11:48:12;;;;;;;18.43;14.30;;;0.60;1.00;;;;;;6261983;28;20706;-55
2023/01/26 11:51:23;;;;;;;17.33;13.47;;;0.60;1.00;;;;;;6254135;28;20252;-55
2023/01/26 11:54:40;;;;;;;18.60;13.87;;;0.50;1.00;;;;;;6261153;28;20241;-55
2023/01/26 11:57:53;;;;;;;20.80;14.93;;;0.60;1.00;;;;;;6252270;28;20539;-59
2023/01/26 12:00:59;;;;;;;18.77;14.50;;;0.40;1.00;;;;;;6262895;28;20726;-55
2023/01/26 12:04:04;;;;;;;18.60;15.30;;;0.50;1.00;;;;;;6259874;28;20324;-54
2023/01/26 12:07:14;;;;;;;22.60;16.03;;;0.50;1.00;;;;;;6272439;28;20237;-54
2023/01/26 12:10:20;;;;;;;18.90;14.53;;;0.60;1.00;;;;;;6257958;28;20707;-54
2023/01/26 12:13:32;;;;;;;16.33;14.43;;;0.50;1.00;;;;;;6257622;28;20237;-56
2023/01/26 12:16:44;;;;;;;16.13;14.00;;;0.70;1.00;;;;;;6258140;28;20570;-54
2023/01/26 12:20:03;;;;;;;18.53;14.13;;;0.60;1.00;;;;;;6267128;28;20242;-55
2023/01/26 12:23:17;;;;;;;17.03;12.93;;;0.50;1.00;;;;;;6254475;28;20413;-55
2023/01/26 12:26:23;;;;;;;14.90;13.17;;;0.50;1.00;;;;;;6257506;28;20324;-54
2023/01/26 12:29:36;;;;;;;15.97;14.13;;;0.60;1.00;;;;;;6257137;28;20621;-54
2023/01/26 12:32:39;;;;;;;16.20;13.40;;;0.60;1.00;;;;;;6262996;28;20299;-54
2023/01/26 12:35:59;;;;;;;18.80;14.40;;;0.90;1.00;;;;;;6259304;28;20238;-55
2023/01/26 12:39:13;;;;;;;19.97;15.03;;;0.70;1.00;;;;;;6254631;28;20304;-55
2023/01/26 12:42:27;;;;;;;18.50;15.17;;;0.70;1.00;;;;;;6254223;28;20480;-54
2023/01/26 12:45:34;;;;;;;21.77;16.00;;;0.70;1.00;;;;;;6259591;28;20278;-53
2023/01/26 12:48:43;;;;;;;15.60;13.87;;;0.70;1.00;;;;;;6254879;28;20245;-54
2023/01/26 12:51:52;;;;;;;15.73;14.03;;;0.60;1.00;;;;;;6259356;28;20722;-54
2023/01/26 12:55:01;;;;;;;17.00;14.10;;;0.60;1.00;;;;;;6260876;28;20229;-53
2023/01/26 12:58:11;;;;;;;16.93;13.70;;;0.60;1.00;;;;;;6256904;28;20238;-55
2023/01/26 13:01:17;;;;;;;15.13;13.50;;;0.70;1.00;;;;;;6260672;28;22916;-53
2023/01/26 13:04:20;;;;;;;15.13;12.93;;;0.60;1.00;;;;;;6256879;28;21162;-54
2023/01/26 13:07:30;;;;;;;13.60;12.30;;;0.70;1.00;;;;;;6260479;28;20388;-56
2023/01/26 13:10:48;;;;;;;11.97;10.90;;;0.80;1.00;;;;;;6261014;28;20241;-56
2023/01/26 13:13:56;;;;;;;13.97;11.90;;;0.70;1.00;;;;;;6262221;28;20245;-54
2023/01/26 13:17:51;;;;;;;13.00;11.70;;;0.70;1.00;;;;;;6262702;28;20245;-54
2023/01/26 13:20:55;;;;;;;13.03;11.17;;;0.90;1.00;;;;;;6257102;28;20705;-53
2023/01/26 13:23:59;;;;;;;12.43;11.23;;;0.90;1.00;;;;;;6253844;28;20252;-54
2023/01/26 13:27:02;;;;;;;13.57;12.13;;;0.70;1.00;;;;;;6247499;28;20401;-54
2023/01/26 13:30:34;;;;;;;15.50;12.00;;;0.70;1.00;;;;;;6256107;28;20734;-55
2023/01/26 13:33:38;;;;;;;12.30;11.20;;;0.60;1.00;;;;;;6262660;28;20241;-54
2023/01/26 13:36:46;;;;;;;11.10;10.10;;;0.60;1.00;;;;;;6256782;28;20237;-56
2023/01/26 13:39:55;;;;;;;13.37;10.83;;;0.60;1.00;;;;;;6256433;28;20238;-54
2023/01/26 13:43:04;;;;;;;11.97;10.87;;;0.80;1.00;;;;;;6258007;28;20234;-54
2023/01/26 13:46:25;;;;;;;11.13;10.13;;;0.90;1.00;;;;;;6251863;28;20576;-55
2023/01/26 13:49:38;;;;;;;11.60;10.37;;;0.70;1.00;;;;;;6248534;28;20231;-56
2023/01/26 13:52:42;;;;;;;11.77;10.67;;;0.80;1.00;;;;;;6254818;28;20249;-53
2023/01/26 13:55:55;;;;;;;11.73;10.77;;;0.70;1.00;;;;;;6258171;28;20237;-55
2023/01/26 13:59:07;;;;;;;13.00;11.73;;;0.80;1.00;;;;;;6267464;28;20234;-55
2023/01/26 14:02:20;;;;;;;13.10;11.33;;;0.80;1.00;;;;;;6255355;28;20242;-54
2023/01/26 14:05:24;;;;;;;12.77;11.37;;;1.00;1.00;;;;;;6258398;28;20222;-54
2023/01/26 14:08:27;;;;;;;12.70;10.97;;;0.80;1.00;;;;;;6261827;28;20226;-55
2023/01/26 14:11:34;;;;;;;12.20;11.03;;;0.90;1.00;;;;;;6259322;28;20674;-54
2023/01/26 14:14:37;;;;;;;11.70;10.50;;;0.90;1.00;;;;;;6259618;28;20254;-54
2023/01/26 14:17:49;;;;;;;12.50;11.23;;;0.90;1.00;;;;;;6262969;28;20238;-56
2023/01/26 14:20:59;;;;;;;12.40;11.20;;;0.80;1.00;;;;;;6253536;28;20234;-54
2023/01/26 14:24:02;;;;;;;14.27;11.93;;;0.80;1.00;;;;;;6268274;28;20245;-53
2023/01/26 14:27:28;;;;;;;14.13;12.30;;;0.60;1.00;;;;;;6258969;28;20652;-54
2023/01/26 14:30:33;;;;;;;13.60;12.17;;;0.70;1.00;;;;;;6256138;28;20226;-54
2023/01/26 14:33:37;;;;;;;14.03;12.63;;;0.70;1.00;;;;;;6261021;28;20233;-54
2023/01/26 14:36:40;;;;;;;16.10;13.13;;;0.70;1.00;;;;;;6258023;28;20238;-55
2023/01/26 14:39:46;;;;;;;14.80;12.17;;;0.60;1.00;;;;;;6256092;28;20246;-55
2023/01/26 14:42:53;;;;;;;16.97;13.07;;;0.70;1.00;;;;;;6261264;28;20636;-54
2023/01/26 14:46:00;;;;;;;13.50;12.20;;;0.60;1.00;;;;;;6253726;28;20238;-54
2023/01/26 14:49:09;;;;;;;12.87;11.43;;;0.70;1.00;;;;;;6253108;28;20234;-55
2023/01/26 14:52:22;;;;;;;15.23;11.57;;;0.70;1.00;;;;;;6260553;28;20718;-54
2023/01/26 14:55:28;;;;;;;14.57;12.40;;;0.60;1.00;;;;;;6258170;28;20418;-55
2023/01/26 14:58:33;;;;;;;15.00;13.20;;;0.70;1.00;;;;;;6254327;28;20426;-54
2023/01/26 15:01:37;;;;;;;16.40;12.70;;;0.60;1.00;;;;;;6268406;28;20222;-55
2023/01/26 15:04:41;;;;;;;17.53;13.30;;;0.50;1.00;;;;;;6255396;28;20338;-54
2023/01/26 15:07:46;;;;;;;15.87;13.63;;;0.70;1.00;;;;;;6259683;28;20238;-55
2023/01/26 15:12:14;;;;;;;14.40;12.27;;;0.50;1.00;;;;;;6260512;28;20234;-54
2023/01/26 15:14:34;;;;;;;15.33;13.07;;;0.80;1.00;;;;;;6256547;28;20316;-54
2023/01/26 15:17:39;;;;;;;15.97;12.77;;;0.50;1.00;;;;;;6259310;28;20249;-54
2023/01/26 15:20:45;;;;;;;18.13;13.60;;;0.90;1.00;;;;;;6254912;28;20530;-56
2023/01/26 15:23:51;;;;;;;18.17;14.07;;;0.60;1.00;;;;;;6263818;28;20241;-55
2023/01/26 15:27:03;;;;;;;16.73;13.70;;;0.60;1.00;;;;;;6269632;28;20715;-55
2023/01/26 15:30:16;;;;;;;18.83;14.63;;;0.60;1.00;;;;;;6256596;28;20715;-54
2023/01/26 15:33:49;;;;;;;20.93;14.57;;;0.40;1.00;;;;;;6272277;28;20758;-54
2023/01/26 15:36:52;;;;;;;21.33;16.17;;;0.50;1.00;;;;;;6257351;28;20234;-58
2023/01/26 15:39:55;;;;;;;22.17;16.37;;;0.50;1.00;;;;;;6254088;28;20242;-53
2023/01/26 15:43:10;;;;;;;23.50;16.87;;;0.50;1.00;;;;;;6256952;28;20257;-54
2023/01/26 15:46:14;;;;;;;23.73;16.60;;;0.50;1.00;;;;;;6264585;28;20580;-55
2023/01/26 15:49:21;;;;;;;22.97;17.57;;;0.60;1.00;;;;;;6253308;28;20249;-55
2023/01/26 15:52:29;;;;;;;25.50;16.77;;;0.60;1.00;;;;;;6252012;28;20456;-54
2023/01/26 15:55:33;;;;;;;25.13;16.83;;;0.50;1.00;;;;;;6256676;28;20270;-53
2023/01/26 15:58:36;;;;;;;24.13;17.10;;;0.60;1.00;;;;;;6256325;28;20233;-55
2023/01/26 16:01:41;;;;;;;26.50;17.47;;;0.50;1.00;;;;;;6254944;28;20436;-55
2023/01/26 16:04:44;;;;;;;28.47;17.90;;;0.60;1.00;;;;;;6262617;28;20275;-54
2023/01/26 16:07:48;;;;;;;24.20;17.17;;;0.40;1.00;;;;;;6259343;28;20425;-54
2023/01/26 16:10:51;;;;;;;26.43;17.67;;;0.60;1.00;;;;;;6262012;28;20241;-53
2023/01/26 16:13:55;;;;;;;26.83;18.07;;;0.40;1.00;;;;;;6252846;28;20298;-55
2023/01/26 16:17:13;;;;;;;23.87;16.57;;;0.40;1.00;;;;;;6258724;28;20237;-55
2023/01/26 16:20:16;;;;;;;24.67;18.00;;;0.40;1.00;;;;;;6251081;28;20230;-55
2023/01/26 16:23:21;;;;;;;24.27;18.07;;;0.40;1.00;;;;;;6252064;28;20464;-56
2023/01/26 16:26:26;;;;;;;26.47;16.43;;;0.30;1.00;;;;;;6256384;28;20848;-55
2023/01/26 16:29:30;;;;;;;21.77;15.83;;;0.30;1.00;;;;;;6257126;28;20234;-54
2023/01/26 16:32:34;;;;;;;19.20;15.30;;;0.30;1.00;;;;;;6264206;28;20250;-53
2023/01/26 16:35:37;;;;;;;19.17;14.97;;;0.40;1.00;;;;;;6254605;28;20229;-55
2023/01/26 16:38:41;;;;;;;31.47;16.87;;;0.40;1.00;;;;;;6252535;28;20755;-54
2023/01/26 16:41:44;;;;;;;20.00;15.63;;;0.40;1.00;;;;;;6257068;28;20768;-55
2023/01/26 16:44:47;;;;;;;21.30;14.73;;;0.20;1.00;;;;;;6267431;28;20244;-54
2023/01/26 16:47:54;;;;;;;22.50;16.03;;;0.40;1.00;;;;;;6261795;28;20765;-54
2023/01/26 16:50:57;;;;;;;18.93;14.10;;;0.60;1.00;;;;;;6250831;28;20261;-54
2023/01/26 16:54:00;;;;;;;17.90;14.10;;;0.30;1.00;;;;;;6246520;28;20230;-56
2023/01/26 16:57:04;;;;;;;19.67;15.00;;;0.30;1.00;;;;;;6254687;28;20237;-54
2023/01/26 17:00:09;;;;;;;19.90;15.13;;;0.40;1.00;;;;;;6258486;28;20727;-53